createdAt,value
2019-01-06T00:02:20.401Z,24.55
2019-01-06T00:04:57.503Z,27.73
2019-01-06T00:07:37.217Z,25.65
2019-01-06T00:10:09.178Z,27.40
2019-01-06T00:12:58.494Z,28.87
2019-01-06T00:18:22.042Z,25.70
2019-01-06T00:21:09.895Z,25.30
2019-01-06T00:23:55.979Z,24.20
2019-01-06T00:26:35.927Z,23.02
2019-01-06T00:29:12.773Z,23.25
2019-01-06T00:31:44.032Z,21.30
2019-01-06T00:34:27.016Z,21.75
2019-01-06T00:37:07.210Z,21.50
2019-01-06T00:39:54.394Z,22.00
2019-01-06T00:42:31.310Z,19.30
2019-01-06T00:45:18.798Z,19.35
2019-01-06T00:48:06.274Z,19.80
2019-01-06T00:50:53.546Z,19.02
2019-01-06T00:53:41.018Z,19.67
2019-01-06T00:56:23.750Z,18.95
2019-01-06T00:59:03.802Z,17.95
2019-01-06T01:01:47.123Z,17.02
2019-01-06T01:04:34.119Z,19.17
2019-01-06T01:07:21.765Z,17.62
2019-01-06T01:09:55.373Z,16.00
2019-01-06T01:12:31.854Z,13.65
2019-01-06T01:15:05.426Z,13.62
2019-01-06T01:17:45.334Z,12.60
2019-01-06T01:20:25.639Z,11.90
2019-01-06T01:23:08.258Z,11.30
2019-01-06T01:25:45.165Z,10.85
2019-01-06T01:28:28.418Z,10.13
2019-01-06T01:31:17.723Z,10.30
2019-01-06T01:33:48.975Z,11.68
2019-01-06T01:36:19.894Z,12.60
2019-01-06T01:39:07.197Z,12.93
2019-01-06T01:41:38.386Z,12.07
2019-01-06T01:44:21.399Z,10.85
2019-01-06T01:46:52.322Z,10.03
2019-01-06T01:49:26.155Z,12.43
2019-01-06T01:52:02.826Z,10.25
2019-01-06T01:54:34.118Z,10.40
2019-01-06T01:57:10.947Z,10.72
2019-01-06T01:59:58.195Z,11.95
2019-01-06T02:02:29.107Z,11.28
2019-01-06T02:05:18.266Z,12.13
2019-01-06T02:07:49.259Z,11.50
2019-01-06T02:10:26.275Z,13.55
2019-01-06T02:13:06.210Z,11.65
2019-01-06T02:15:37.497Z,12.10
2019-01-06T02:18:23.438Z,12.58
2019-01-06T02:21:00.210Z,13.00
2019-01-06T02:23:37.446Z,12.90
2019-01-06T02:26:26.738Z,12.98
2019-01-06T02:28:57.658Z,14.38
2019-01-06T02:31:40.511Z,14.00
2019-01-06T02:34:27.718Z,15.25
2019-01-06T02:36:58.644Z,14.55
2019-01-06T02:39:32.701Z,12.85
2019-01-06T02:42:20.171Z,14.58
2019-01-06T02:44:54.391Z,13.15
2019-01-06T02:47:43.479Z,14.05
2019-01-06T02:50:14.702Z,14.07
2019-01-06T02:53:01.972Z,14.15
2019-01-06T02:55:35.595Z,14.23
2019-01-06T02:58:15.462Z,11.95
2019-01-06T03:01:02.990Z,13.62
2019-01-06T03:03:52.377Z,13.58
2019-01-06T03:06:38.591Z,13.80
2019-01-06T03:09:27.506Z,14.43
2019-01-06T03:12:04.138Z,12.55
2019-01-06T03:14:37.996Z,13.15
2019-01-06T03:17:08.909Z,12.50
2019-01-06T03:19:56.445Z,13.08
2019-01-06T03:22:39.622Z,11.57
2019-01-06T03:25:19.274Z,12.10
2019-01-06T03:27:53.136Z,12.60
2019-01-06T03:30:26.792Z,12.37
2019-01-06T03:33:06.665Z,13.50
2019-01-06T03:35:40.548Z,11.53
2019-01-06T03:38:30.092Z,12.70
2019-01-06T03:41:04.986Z,11.88
2019-01-06T03:43:41.573Z,12.45
2019-01-06T03:46:12.506Z,14.03
2019-01-06T03:48:49.619Z,13.08
2019-01-06T03:51:20.529Z,14.20
2019-01-06T03:53:57.170Z,13.13
2019-01-06T03:56:44.366Z,13.32
2019-01-06T03:59:15.299Z,12.68
2019-01-06T04:01:52.476Z,15.05
2019-01-06T04:04:38.783Z,15.00
2019-01-06T04:07:25.955Z,15.48
2019-01-06T04:09:56.886Z,16.25
2019-01-06T04:12:27.799Z,15.40
2019-01-06T04:15:15.010Z,16.10
2019-01-06T04:17:51.658Z,14.75
2019-01-06T04:20:25.538Z,16.67
2019-01-06T04:23:05.350Z,15.48
2019-01-06T04:25:39.271Z,19.60
2019-01-06T04:28:10.490Z,19.35
2019-01-06T04:30:58.027Z,20.57
2019-01-06T04:33:35.039Z,19.40
2019-01-06T04:36:08.719Z,21.02
2019-01-06T04:38:58.258Z,21.62
2019-01-06T04:41:32.287Z,23.07
2019-01-06T04:44:18.679Z,24.55
2019-01-06T04:47:04.522Z,24.82
2019-01-06T04:49:35.452Z,25.32
2019-01-06T04:52:12.593Z,25.57
2019-01-06T04:54:55.251Z,27.73
2019-01-06T04:57:42.403Z,27.70
2019-01-06T05:00:29.555Z,25.95
2019-01-06T05:03:17.107Z,25.05
2019-01-06T05:06:00.751Z,24.10
2019-01-06T05:08:37.406Z,21.80
2019-01-06T05:11:08.335Z,22.80
2019-01-06T05:13:39.567Z,21.62
2019-01-06T05:16:26.769Z,22.65
2019-01-06T05:19:16.157Z,22.87
2019-01-06T05:21:47.078Z,21.35
2019-01-06T05:24:24.094Z,20.43
2019-01-06T05:26:57.758Z,21.42
2019-01-06T05:29:34.549Z,19.52
2019-01-06T05:32:11.846Z,19.90
2019-01-06T05:34:43.108Z,21.77
2019-01-06T05:37:29.050Z,19.48
2019-01-06T05:40:00.228Z,19.60
2019-01-06T05:42:47.579Z,20.27
2019-01-06T05:45:34.831Z,17.10
2019-01-06T05:48:08.682Z,18.45
2019-01-06T05:50:54.586Z,19.05
2019-01-06T05:53:25.509Z,21.23
2019-01-06T05:56:00.041Z,20.57
2019-01-06T05:58:33.677Z,18.70
2019-01-06T06:01:11.084Z,19.12
2019-01-06T06:03:42.022Z,20.82
2019-01-06T06:06:31.044Z,19.52
2019-01-06T06:09:20.406Z,18.30
2019-01-06T06:12:07.772Z,19.00
2019-01-06T06:14:44.915Z,18.57
2019-01-06T06:17:20.155Z,20.17
2019-01-06T06:19:53.855Z,19.45
2019-01-06T06:22:30.563Z,20.75
2019-01-06T06:25:07.668Z,17.65
2019-01-06T06:27:41.162Z,18.85
2019-01-06T06:30:27.095Z,20.60
2019-01-06T06:33:07.037Z,20.02
2019-01-06T06:35:54.485Z,20.23
2019-01-06T06:38:37.697Z,18.32
2019-01-06T06:41:18.170Z,19.80
2019-01-06T06:43:52.385Z,19.23
2019-01-06T06:46:38.558Z,18.40
2019-01-06T06:49:09.485Z,19.30
2019-01-06T06:51:56.707Z,18.95
2019-01-06T06:54:39.741Z,20.62
2019-01-06T06:57:47.075Z,20.72
2019-01-06T07:00:48.193Z,20.20
2019-01-06T07:03:53.655Z,19.30
2019-01-06T07:06:27.218Z,21.12
2019-01-06T07:09:16.274Z,18.95
2019-01-06T07:11:53.152Z,19.77
2019-01-06T07:14:40.054Z,19.90
2019-01-06T07:17:46.900Z,18.45
2019-01-06T07:20:23.034Z,21.87
2019-01-06T07:22:55.328Z,23.65
2019-01-06T07:25:26.573Z,22.45
2019-01-06T07:28:12.766Z,23.75
2019-01-06T07:30:49.694Z,22.10
2019-01-06T07:33:39.322Z,25.75
2019-01-06T07:36:15.954Z,21.93
2019-01-06T07:38:52.622Z,26.07
2019-01-06T07:41:40.066Z,24.37
2019-01-06T07:44:23.323Z,25.45
2019-01-06T07:47:10.723Z,22.35
2019-01-06T07:49:53.756Z,21.02
2019-01-06T07:52:39.850Z,23.47
2019-01-06T07:55:16.842Z,23.80
2019-01-06T07:57:50.725Z,22.22
2019-01-06T08:00:24.591Z,23.07
2019-01-06T08:03:01.670Z,23.27
2019-01-06T08:05:41.785Z,23.02
2019-01-06T08:08:21.480Z,24.37
2019-01-06T08:10:52.403Z,23.70
2019-01-06T08:13:26.237Z,21.85
2019-01-06T08:16:00.618Z,21.33
2019-01-06T08:18:46.639Z,23.18
2019-01-06T08:21:29.619Z,23.25
2019-01-06T08:24:03.083Z,22.45
2019-01-06T08:26:36.930Z,20.25
2019-01-06T08:29:13.329Z,22.40
2019-01-06T08:31:49.959Z,22.10
2019-01-06T08:34:20.889Z,19.95
2019-01-06T08:37:08.070Z,19.55
2019-01-06T08:39:41.647Z,17.35
2019-01-06T08:42:28.822Z,18.95
2019-01-06T08:45:16.241Z,20.27
2019-01-06T08:47:55.934Z,17.85
2019-01-06T08:50:42.134Z,19.07
2019-01-06T08:53:13.066Z,19.10
2019-01-06T08:55:59.359Z,17.57
2019-01-06T08:58:30.509Z,17.32
2019-01-06T09:01:17.823Z,16.52
2019-01-06T09:03:51.685Z,16.30
2019-01-06T09:06:37.674Z,14.87
2019-01-06T09:09:08.847Z,13.93
2019-01-06T09:11:42.653Z,14.80
2019-01-06T09:14:13.586Z,15.65
2019-01-06T09:16:59.916Z,17.20
2019-01-06T09:19:50.641Z,17.60
2019-01-06T09:22:32.414Z,17.50
2019-01-06T09:25:03.347Z,16.55
2019-01-06T09:27:46.230Z,18.90
2019-01-06T09:30:33.239Z,17.42
2019-01-06T09:33:13.237Z,17.02
2019-01-06T09:36:00.314Z,16.50
2019-01-06T09:38:46.177Z,17.50
2019-01-06T09:41:20.083Z,20.50
2019-01-06T09:44:06.135Z,19.35
2019-01-06T09:46:37.045Z,19.87
2019-01-06T09:49:08.235Z,20.30
2019-01-06T09:51:44.851Z,20.50
2019-01-06T09:54:28.230Z,23.15
2019-01-06T09:57:06.447Z,24.00
2019-01-06T09:59:54.083Z,21.80
2019-01-06T10:02:34.091Z,22.77
2019-01-06T10:05:23.199Z,22.30
2019-01-06T10:07:56.716Z,23.55
2019-01-06T10:10:27.651Z,20.30
2019-01-06T10:12:58.574Z,21.33
2019-01-06T10:15:29.506Z,21.17
2019-01-06T10:18:00.756Z,19.27
2019-01-06T10:20:31.708Z,18.65
2019-01-06T10:23:15.027Z,18.75
2019-01-06T10:25:48.862Z,17.70
2019-01-06T10:28:22.640Z,17.02
2019-01-06T10:30:53.570Z,16.42
2019-01-06T10:33:30.634Z,16.87
2019-01-06T10:36:16.710Z,17.25
2019-01-06T10:38:53.362Z,16.80
2019-01-06T10:41:35.962Z,16.40
2019-01-06T10:44:10.022Z,15.00
2019-01-06T10:46:57.596Z,16.30
2019-01-06T10:49:31.191Z,17.48
2019-01-06T10:52:04.854Z,16.60
2019-01-06T10:54:36.031Z,15.98
2019-01-06T10:57:11.893Z,16.23
2019-01-06T10:59:43.047Z,17.55
2019-01-06T11:02:26.042Z,19.60
2019-01-06T11:05:13.377Z,14.85
2019-01-06T11:07:44.306Z,12.58
2019-01-06T11:10:27.148Z,14.70
2019-01-06T11:13:16.402Z,16.07
2019-01-06T11:15:56.286Z,14.55
2019-01-06T11:18:27.193Z,13.70
2019-01-06T11:21:15.308Z,11.93
2019-01-06T11:23:52.519Z,11.95
2019-01-06T11:26:26.366Z,12.25
2019-01-06T11:29:15.675Z,12.35
2019-01-06T11:31:46.946Z,10.55
2019-01-06T11:34:34.113Z,11.63
2019-01-06T11:37:05.037Z,12.20
2019-01-06T11:39:52.633Z,11.70
2019-01-06T11:42:39.733Z,11.95
2019-01-06T11:45:10.910Z,12.07
2019-01-06T11:47:59.621Z,13.60
2019-01-06T11:50:36.617Z,13.30
2019-01-06T11:53:10.977Z,14.68
2019-01-06T11:55:47.891Z,16.97
2019-01-06T11:58:18.815Z,14.20
2019-01-06T12:00:49.733Z,15.55
2019-01-06T12:03:36.975Z,14.25
2019-01-06T12:06:19.861Z,14.93
2019-01-06T12:08:59.777Z,14.53
2019-01-06T12:11:36.409Z,14.33
2019-01-06T12:14:16.832Z,13.40
2019-01-06T12:17:05.297Z,15.30
2019-01-06T12:19:39.141Z,15.78
2019-01-06T12:22:15.812Z,16.73
2019-01-06T12:24:47.016Z,13.48
2019-01-06T12:27:20.710Z,15.45
2019-01-06T12:29:51.958Z,15.40
2019-01-06T12:32:38.462Z,13.25
2019-01-06T12:35:12.303Z,14.00
2019-01-06T12:37:45.971Z,13.53
2019-01-06T12:40:16.897Z,13.90
2019-01-06T12:43:04.324Z,14.83
2019-01-06T12:45:38.170Z,14.93
2019-01-06T12:48:12.359Z,15.10
2019-01-06T12:50:43.287Z,17.25
2019-01-06T12:53:29.362Z,15.48
2019-01-06T12:56:00.542Z,15.15
2019-01-06T12:58:40.542Z,17.25
2019-01-06T13:01:27.446Z,16.37
2019-01-06T13:04:07.508Z,18.12
2019-01-06T13:06:38.710Z,16.62
2019-01-06T13:09:12.738Z,18.23
2019-01-06T13:11:46.932Z,17.57
2019-01-06T13:14:26.842Z,19.52
2019-01-06T13:16:57.763Z,18.87
2019-01-06T13:19:40.910Z,20.40
2019-01-06T13:22:30.095Z,20.75
2019-01-06T13:25:01.036Z,20.05
2019-01-06T13:27:48.203Z,20.85
2019-01-06T13:30:19.125Z,21.93
2019-01-06T13:33:02.332Z,20.08
2019-01-06T13:35:33.588Z,20.08
2019-01-06T13:38:16.767Z,19.57
2019-01-06T13:40:50.355Z,17.92
2019-01-06T13:43:33.228Z,18.73
2019-01-06T13:46:19.419Z,16.23
2019-01-06T13:49:05.596Z,18.45
2019-01-06T13:51:36.546Z,18.67
2019-01-06T13:54:30.155Z,19.23
2019-01-06T13:57:14.615Z,18.15
2019-01-06T14:00:02.220Z,17.67
2019-01-06T14:02:48.154Z,17.70
2019-01-06T14:05:21.852Z,17.60
2019-01-06T14:08:01.868Z,18.27
2019-01-06T14:10:32.790Z,18.25
2019-01-06T14:13:06.646Z,17.02
2019-01-06T14:15:37.576Z,19.42
2019-01-06T14:18:14.426Z,18.70
2019-01-06T14:20:48.570Z,18.75
2019-01-06T14:23:28.496Z,18.75
2019-01-06T14:26:09.059Z,18.57
2019-01-06T14:28:54.913Z,19.70
2019-01-06T14:31:36.032Z,19.00
2019-01-06T14:34:23.358Z,19.87
2019-01-06T14:37:03.301Z,18.70
2019-01-06T14:39:49.910Z,20.92
2019-01-06T14:42:36.845Z,20.92
2019-01-06T14:45:10.911Z,22.93
2019-01-06T14:47:58.362Z,23.62
2019-01-06T14:50:33.391Z,26.17
2019-01-06T14:53:04.305Z,25.48
2019-01-06T14:55:40.820Z,28.80
2019-01-06T14:58:12.055Z,27.13
2019-01-06T15:00:48.717Z,27.82
2019-01-06T15:03:28.621Z,29.12
2019-01-06T15:06:04.985Z,26.35
2019-01-06T15:08:36.182Z,25.88
2019-01-06T15:11:23.505Z,25.55
2019-01-06T15:14:00.756Z,24.47
2019-01-06T15:16:31.685Z,24.52
2019-01-06T15:19:15.562Z,25.10
2019-01-06T15:21:58.273Z,21.45
2019-01-06T15:24:32.129Z,23.22
2019-01-06T15:27:11.891Z,19.48
2019-01-06T15:29:43.088Z,18.82
2019-01-06T15:32:19.769Z,17.45
2019-01-06T15:35:07.358Z,15.85
2019-01-06T15:37:38.294Z,15.18
2019-01-06T15:40:15.504Z,16.62
2019-01-06T15:42:58.952Z,16.10
2019-01-06T15:45:32.864Z,14.30
2019-01-06T15:48:07.076Z,9.13
2019-01-06T15:50:38.323Z,8.78
2019-01-06T15:53:11.898Z,9.63
2019-01-06T15:55:48.903Z,9.78
2019-01-06T15:58:19.834Z,10.50
2019-01-06T16:01:07.031Z,11.20
2019-01-06T16:03:56.686Z,12.75
2019-01-06T16:06:30.347Z,15.03
2019-01-06T16:09:19.263Z,16.30
2019-01-06T16:11:56.289Z,18.57
2019-01-06T16:14:27.535Z,17.92
2019-01-06T16:17:10.147Z,20.00
2019-01-06T16:19:57.504Z,23.27
2019-01-06T16:22:34.248Z,29.15
2019-01-06T16:25:05.346Z,27.20
2019-01-06T16:27:39.304Z,32.63
2019-01-06T16:30:28.391Z,28.35
2019-01-06T16:33:05.451Z,28.02
2019-01-06T16:35:46.011Z,29.57
2019-01-06T16:38:19.981Z,37.48
2019-01-06T16:40:56.864Z,28.98
2019-01-06T16:43:36.597Z,31.93
2019-01-06T16:46:13.337Z,29.87
2019-01-06T16:48:49.981Z,29.15
2019-01-06T16:51:20.897Z,27.65
2019-01-06T16:54:03.837Z,26.40
2019-01-06T16:56:50.985Z,30.02
2019-01-06T16:59:33.935Z,29.50
2019-01-06T17:02:07.396Z,29.48
2019-01-06T17:04:44.367Z,25.63
2019-01-06T17:07:21.027Z,29.52
2019-01-06T17:09:54.679Z,28.32
2019-01-06T17:12:28.559Z,33.28
2019-01-06T17:15:08.635Z,32.03
2019-01-06T17:17:48.565Z,36.17
2019-01-06T17:20:31.506Z,35.08
2019-01-06T17:23:17.503Z,33.67
2019-01-06T17:25:58.047Z,31.12
2019-01-06T17:28:38.243Z,34.73
2019-01-06T17:31:27.563Z,38.15
2019-01-06T17:33:58.812Z,34.03
2019-01-06T17:36:47.946Z,35.20
2019-01-06T17:39:35.105Z,34.20
2019-01-06T17:42:11.984Z,37.63
2019-01-06T17:44:54.780Z,34.95
2019-01-06T17:47:42.224Z,36.05
2019-01-06T17:50:25.050Z,37.58
2019-01-06T17:53:11.229Z,37.63
2019-01-06T17:55:58.726Z,38.35
2019-01-06T17:58:29.658Z,39.40
2019-01-06T18:01:13.127Z,41.42
2019-01-06T18:03:44.378Z,38.53
2019-01-06T18:06:32.111Z,37.58
2019-01-06T18:09:06.134Z,38.30
2019-01-06T18:11:47.839Z,41.53
2019-01-06T18:14:18.946Z,37.65
2019-01-06T18:16:49.873Z,40.40
2019-01-06T18:19:32.935Z,40.15
2019-01-06T18:22:06.556Z,40.38
2019-01-06T18:24:56.102Z,40.58
2019-01-06T18:27:29.469Z,39.80
2019-01-06T18:30:16.003Z,39.25
2019-01-06T18:32:47.016Z,37.08
2019-01-06T18:35:26.462Z,40.20
2019-01-06T18:37:57.393Z,37.15
2019-01-06T18:40:44.610Z,37.78
2019-01-06T18:43:24.825Z,37.00
2019-01-06T18:45:56.287Z,35.10
2019-01-06T18:48:27.270Z,37.83
2019-01-06T18:51:07.478Z,38.35
2019-01-06T18:53:53.711Z,33.58
2019-01-06T18:56:30.627Z,34.10
2019-01-06T18:59:18.079Z,36.15
2019-01-06T19:01:49.011Z,33.63
2019-01-06T19:04:22.649Z,32.67
2019-01-06T19:06:59.979Z,31.95
2019-01-06T19:09:46.019Z,30.27
2019-01-06T19:12:17.023Z,29.75
2019-01-06T19:14:50.689Z,30.30
2019-01-06T19:17:31.004Z,28.00
2019-01-06T19:20:01.939Z,26.73
2019-01-06T19:22:42.072Z,26.50
2019-01-06T19:25:29.283Z,26.02
2019-01-06T19:28:06.708Z,25.43
2019-01-06T19:30:43.353Z,26.93
2019-01-06T19:33:30.693Z,27.00
2019-01-06T19:36:11.134Z,28.00
2019-01-06T19:38:48.323Z,27.98
2019-01-06T19:41:31.376Z,25.85
2019-01-06T19:44:08.037Z,24.90
2019-01-06T19:46:47.717Z,26.65
2019-01-06T19:49:30.694Z,28.42
2019-01-06T19:52:12.664Z,27.07
2019-01-06T19:54:53.738Z,26.97
2019-01-06T19:57:46.857Z,26.25
2019-01-06T20:00:12.694Z,26.00
2019-01-06T20:02:59.670Z,23.57
2019-01-06T20:05:48.992Z,22.75
2019-01-06T20:08:22.476Z,23.15
2019-01-06T20:11:05.421Z,25.20
2019-01-06T20:13:52.729Z,27.25
2019-01-06T20:16:23.659Z,27.80
2019-01-06T20:19:06.769Z,28.40
2019-01-06T20:21:54.158Z,29.80
2019-01-06T20:24:37.146Z,27.60
2019-01-06T20:27:10.566Z,30.05
2019-01-06T20:29:58.108Z,29.57
2019-01-06T20:32:47.322Z,30.95
2019-01-06T20:35:18.254Z,31.73
2019-01-06T20:37:49.459Z,34.40
2019-01-06T20:40:26.646Z,35.23
2019-01-06T20:43:13.867Z,33.50
2019-01-06T20:45:56.817Z,33.83
2019-01-06T20:48:44.526Z,35.23
2019-01-06T20:51:15.519Z,34.95
2019-01-06T20:54:02.980Z,36.08
2019-01-06T20:56:46.420Z,35.15
2019-01-06T20:59:26.135Z,39.42
2019-01-06T21:02:06.270Z,39.38
2019-01-06T21:04:37.195Z,37.60
2019-01-06T21:07:13.817Z,38.42
2019-01-06T21:09:56.541Z,37.85
2019-01-06T21:12:36.523Z,36.60
2019-01-06T21:15:24.451Z,37.60
2019-01-06T21:18:05.519Z,39.20
2019-01-06T21:20:36.439Z,38.13
2019-01-06T21:23:25.543Z,39.58
2019-01-06T21:26:05.678Z,40.92
2019-01-06T21:28:53.205Z,40.15
2019-01-06T21:31:24.109Z,39.90
2019-01-06T21:33:55.042Z,40.00
2019-01-06T21:36:29.731Z,39.35
2019-01-06T21:39:03.539Z,38.23
2019-01-06T21:41:43.286Z,38.65
2019-01-06T21:44:30.813Z,39.70
2019-01-06T21:47:18.070Z,42.23
2019-01-06T21:50:04.995Z,45.15
2019-01-06T21:52:39.126Z,44.18
2019-01-06T21:55:13.242Z,42.53
2019-01-06T21:57:50.333Z,43.02
2019-01-06T22:00:37.784Z,42.40
2019-01-06T22:03:25.312Z,45.15
2019-01-06T22:05:59.185Z,41.90
2019-01-06T22:08:46.815Z,45.98
2019-01-06T22:11:20.770Z,43.42
2019-01-06T22:13:54.849Z,44.38
2019-01-06T22:16:44.215Z,44.45
2019-01-06T22:19:20.915Z,47.35
2019-01-06T22:21:57.811Z,44.70
2019-01-06T22:24:44.890Z,47.90
2019-01-06T22:27:24.675Z,43.70
2019-01-06T22:30:11.846Z,44.98
2019-01-06T22:32:54.579Z,43.52
2019-01-06T22:35:28.981Z,45.70
2019-01-06T22:38:02.713Z,46.55
2019-01-06T22:40:33.629Z,42.88
2019-01-06T22:43:07.183Z,44.70
2019-01-06T22:45:38.107Z,45.12
2019-01-06T22:48:25.380Z,44.98
2019-01-06T22:51:02.082Z,44.80
2019-01-06T22:53:49.703Z,47.20
2019-01-06T22:56:37.639Z,47.50
2019-01-06T22:59:17.801Z,47.70
2019-01-06T23:02:01.148Z,46.37
2019-01-06T23:04:37.819Z,49.83
2019-01-06T23:07:14.747Z,45.38
2019-01-06T23:10:04.251Z,46.13
2019-01-06T23:12:35.263Z,47.55
2019-01-06T23:15:23.343Z,47.38
2019-01-06T23:18:10.799Z,45.12
2019-01-06T23:20:44.176Z,45.25
2019-01-06T23:23:23.830Z,44.45
2019-01-06T23:26:11.362Z,48.10
2019-01-06T23:28:42.294Z,49.08
2019-01-06T23:31:15.898Z,46.58
2019-01-06T23:36:48.103Z,46.65
2019-01-06T23:42:26.529Z,47.48
2019-01-06T23:47:39.641Z,51.40
2019-01-06T23:50:16.923Z,49.23
2019-01-06T23:52:48.176Z,49.30
2019-01-06T23:55:31.058Z,52.30
2019-01-06T23:58:18.291Z,48.80
